sensor_id;sensor_type;location;lat;lon;timestamp;pressure;altitude;pressure_sealevel;temperature;humidity
38558;BME280;24333;42.626;23.308;2023-05-07T00:01:25;70466.72;;;-148.95;97.90
38558;BME280;24333;42.626;23.308;2023-05-07T00:03:51;70479.19;;;-148.95;98.92
38558;BME280;24333;42.626;23.308;2023-05-07T02:41:00;70564.25;;;-148.95;100.00
38558;BME280;24333;42.626;23.308;2023-05-07T02:43:26;70574.63;;;-148.95;100.00
38558;BME280;24333;42.626;23.308;2023-05-07T02:48:27;70582.94;;;-148.95;100.00
38558;BME280;24333;42.626;23.308;2023-05-07T02:51:04;70578.78;;;-148.95;100.00
38558;BME280;24333;42.626;23.308;2023-05-07T02:53:43;70587.06;;;-148.95;100.00
38558;BME280;24333;42.626;23.308;2023-05-07T02:56:08;70595.38;;;-148.95;100.00
38558;BME280;24333;42.626;23.308;2023-05-07T02:58:33;70599.53;;;-148.95;100.00
38558;BME280;24333;42.626;23.308;2023-05-07T03:00:59;70605.75;;;-148.95;100.00
38558;BME280;24333;42.626;23.308;2023-05-07T03:03:24;70605.75;;;-148.95;100.00
38558;BME280;24333;42.626;23.308;2023-05-07T03:05:50;70595.38;;;-148.95;100.00
38558;BME280;24333;42.626;23.308;2023-05-07T03:08:20;70603.69;;;-148.95;100.00
38558;BME280;24333;42.626;23.308;2023-05-07T03:10:46;70609.91;;;-148.95;100.00
38558;BME280;24333;42.626;23.308;2023-05-07T03:13:11;70620.28;;;-148.95;100.00
38558;BME280;24333;42.626;23.308;2023-05-07T03:15:37;70626.50;;;-148.95;100.00
38558;BME280;24333;42.626;23.308;2023-05-07T03:18:02;70630.66;;;-148.95;100.00
38558;BME280;24333;42.626;23.308;2023-05-07T03:20:40;70638.94;;;-148.95;100.00
38558;BME280;24333;42.626;23.308;2023-05-07T03:23:11;70638.94;;;-148.95;100.00
38558;BME280;24333;42.626;23.308;2023-05-07T03:25:37;70643.09;;;-148.95;100.00
38558;BME280;24333;42.626;23.308;2023-05-07T03:28:02;70643.09;;;-148.95;100.00
38558;BME280;24333;42.626;23.308;2023-05-07T03:30:28;70643.09;;;-148.95;100.00
38558;BME280;24333;42.626;23.308;2023-05-07T03:32:53;70641.03;;;-148.95;100.00
38558;BME280;24333;42.626;23.308;2023-05-07T03:35:18;70638.94;;;-148.95;100.00
38558;BME280;24333;42.626;23.308;2023-05-07T03:37:50;70641.03;;;-148.95;100.00
38558;BME280;24333;42.626;23.308;2023-05-07T03:40:15;70643.09;;;-148.95;100.00
38558;BME280;24333;42.626;23.308;2023-05-07T03:42:41;70641.03;;;-148.95;100.00
38558;BME280;24333;42.626;23.308;2023-05-07T03:45:07;70636.88;;;-148.95;100.00
38558;BME280;24333;42.626;23.308;2023-05-07T03:47:32;70632.72;;;-148.95;100.00
38558;BME280;24333;42.626;23.308;2023-05-07T03:50:11;70624.41;;;-148.95;100.00
38558;BME280;24333;42.626;23.308;2023-05-07T03:52:42;70616.13;;;-148.95;100.00
38558;BME280;24333;42.626;23.308;2023-05-07T03:55:08;70601.59;;;-148.95;100.00
38558;BME280;24333;42.626;23.308;2023-05-07T03:57:33;70599.53;;;-148.95;100.00
38558;BME280;24333;42.626;23.308;2023-05-07T03:59:59;70595.38;;;-148.95;100.00
38558;BME280;24333;42.626;23.308;2023-05-07T04:02:24;70595.38;;;-148.95;100.00
38558;BME280;24333;42.626;23.308;2023-05-07T04:04:50;70587.06;;;-148.95;100.00
38558;BME280;24333;42.626;23.308;2023-05-07T04:09:55;70582.94;;;-148.95;100.00
38558;BME280;24333;42.626;23.308;2023-05-07T04:12:20;70570.47;;;-148.95;100.00
38558;BME280;24333;42.626;23.308;2023-05-07T04:14:46;70562.19;;;-148.95;100.00
38558;BME280;24333;42.626;23.308;2023-05-07T04:17:11;70564.25;;;-148.95;100.00
38558;BME280;24333;42.626;23.308;2023-05-07T04:19:36;70566.31;;;-148.95;100.00
38558;BME280;24333;42.626;23.308;2023-05-07T04:22:02;70566.31;;;-148.95;100.00
38558;BME280;24333;42.626;23.308;2023-05-07T04:24:27;70555.94;;;-148.95;100.00
38558;BME280;24333;42.626;23.308;2023-05-07T04:26:52;70551.81;;;-148.95;100.00
38558;BME280;24333;42.626;23.308;2023-05-07T04:29:18;70543.50;;;-148.95;100.00
38558;BME280;24333;42.626;23.308;2023-05-07T04:31:44;70537.28;;;-148.95;100.00
38558;BME280;24333;42.626;23.308;2023-05-07T04:34:12;70528.97;;;-148.95;100.00
38558;BME280;24333;42.626;23.308;2023-05-07T04:36:38;70526.91;;;-148.95;100.00
38558;BME280;24333;42.626;23.308;2023-05-07T09:04:27;69605.81;;;-148.95;44.98
38558;BME280;24333;42.626;23.308;2023-05-07T09:06:53;69655.59;;;-148.95;45.71
38558;BME280;24333;42.626;23.308;2023-05-07T09:09:21;69628.63;;;-148.95;47.04
38558;BME280;24333;42.626;23.308;2023-05-07T09:11:47;69612.03;;;-148.95;47.92
38558;BME280;24333;42.626;23.308;2023-05-07T09:14:13;69601.66;;;-148.95;49.21
38558;BME280;24333;42.626;23.308;2023-05-07T09:16:39;69587.13;;;-148.95;47.19
38558;BME280;24333;42.626;23.308;2023-05-07T09:19:04;69597.50;;;-148.95;46.05
38558;BME280;24333;42.626;23.308;2023-05-07T09:21:30;69599.59;;;-148.95;45.45
38558;BME280;24333;42.626;23.308;2023-05-07T09:23:55;69560.16;;;-148.95;46.94
38558;BME280;24333;42.626;23.308;2023-05-07T09:26:22;69535.28;;;-148.95;46.56
38558;BME280;24333;42.626;23.308;2023-05-07T09:28:47;69508.31;;;-148.95;45.36
38558;BME280;24333;42.626;23.308;2023-05-07T09:54:33;69356.91;;;-148.95;39.70
38558;BME280;24333;42.626;23.308;2023-05-07T09:57:46;69329.94;;;-148.95;41.09
38558;BME280;24333;42.626;23.308;2023-05-07T12:34:56;69012.59;;;-148.95;31.94
38558;BME280;24333;42.626;23.308;2023-05-07T12:37:25;69025.06;;;-148.95;32.61
38558;BME280;24333;42.626;23.308;2023-05-07T12:40:07;69010.53;;;-148.95;31.81
38558;BME280;24333;42.626;23.308;2023-05-07T12:42:36;68977.34;;;-148.95;31.00
38558;BME280;24333;42.626;23.308;2023-05-07T12:45:12;68927.56;;;-148.95;30.57
38558;BME280;24333;42.626;23.308;2023-05-07T12:51:08;69097.63;;;-148.95;32.29
38558;BME280;24333;42.626;23.308;2023-05-07T12:56:44;69062.38;;;-148.95;32.01
38558;BME280;24333;42.626;23.308;2023-05-07T12:59:10;69064.47;;;-148.95;32.32
38558;BME280;24333;42.626;23.308;2023-05-07T13:01:37;69085.19;;;-148.95;32.56
38558;BME280;24333;42.626;23.308;2023-05-07T13:04:05;69085.19;;;-148.95;33.05
38558;BME280;24333;42.626;23.308;2023-05-07T13:06:31;69035.41;;;-148.95;33.38
38558;BME280;24333;42.626;23.308;2023-05-07T13:08:57;69010.53;;;-148.95;33.75
38558;BME280;24333;42.626;23.308;2023-05-07T13:11:22;68989.78;;;-148.95;34.48
38558;BME280;24333;42.626;23.308;2023-05-07T13:13:48;68987.72;;;-148.95;31.95
38558;BME280;24333;42.626;23.308;2023-05-07T13:16:13;68962.84;;;-148.95;34.40
38558;BME280;24333;42.626;23.308;2023-05-07T13:18:40;68915.13;;;-148.95;32.47
38558;BME280;24333;42.626;23.308;2023-05-07T13:21:08;68888.19;;;-148.95;32.73
38558;BME280;24333;42.626;23.308;2023-05-07T13:23:33;68859.16;;;-148.95;32.42
38558;BME280;24333;42.626;23.308;2023-05-07T13:25:59;68867.44;;;-148.95;31.93
38558;BME280;24333;42.626;23.308;2023-05-07T13:28:26;68867.44;;;-148.95;31.59
38558;BME280;24333;42.626;23.308;2023-05-07T13:30:52;68911.00;;;-148.95;31.28
38558;BME280;24333;42.626;23.308;2023-05-07T13:33:20;68942.09;;;-148.95;31.41
38558;BME280;24333;42.626;23.308;2023-05-07T13:35:45;68935.88;;;-148.95;31.43
38558;BME280;24333;42.626;23.308;2023-05-07T13:38:11;68937.94;;;-148.95;31.52
38558;BME280;24333;42.626;23.308;2023-05-07T13:40:36;68956.63;;;-148.95;30.82
38558;BME280;24333;42.626;23.308;2023-05-07T13:43:02;68987.72;;;-148.95;31.01
38558;BME280;24333;42.626;23.308;2023-05-07T13:45:28;68989.78;;;-148.95;31.33
38558;BME280;24333;42.626;23.308;2023-05-07T13:47:55;68983.56;;;-148.95;31.93
38558;BME280;24333;42.626;23.308;2023-05-07T13:50:21;68977.34;;;-148.95;31.95
38558;BME280;24333;42.626;23.308;2023-05-07T13:52:47;69016.75;;;-148.95;31.20
38558;BME280;24333;42.626;23.308;2023-05-07T13:55:20;69027.13;;;-148.95;31.48
38558;BME280;24333;42.626;23.308;2023-05-07T13:57:46;69027.13;;;-148.95;32.99
38558;BME280;24333;42.626;23.308;2023-05-07T14:00:13;69020.91;;;-148.95;31.62
38558;BME280;24333;42.626;23.308;2023-05-07T14:02:39;68991.88;;;-148.95;31.83
38558;BME280;24333;42.626;23.308;2023-05-07T14:05:05;68981.50;;;-148.95;31.42
38558;BME280;24333;42.626;23.308;2023-05-07T14:07:30;68960.75;;;-148.95;32.73
38558;BME280;24333;42.626;23.308;2023-05-07T14:09:56;68969.06;;;-148.95;33.03
38558;BME280;24333;42.626;23.308;2023-05-07T14:12:22;68975.28;;;-148.95;33.25
38558;BME280;24333;42.626;23.308;2023-05-07T14:14:47;68981.50;;;-148.95;35.83
38558;BME280;24333;42.626;23.308;2023-05-07T14:17:16;68998.09;;;-148.95;35.51
38558;BME280;24333;42.626;23.308;2023-05-07T14:19:42;68998.09;;;-148.95;34.65
38558;BME280;24333;42.626;23.308;2023-05-07T14:22:07;69000.16;;;-148.95;33.58
38558;BME280;24333;42.626;23.308;2023-05-07T14:24:55;68993.94;;;-148.95;33.58
38558;BME280;24333;42.626;23.308;2023-05-07T14:27:20;68966.97;;;-148.95;33.22
38558;BME280;24333;42.626;23.308;2023-05-07T14:29:46;68948.31;;;-148.95;32.53
38558;BME280;24333;42.626;23.308;2023-05-07T14:32:18;68927.56;;;-148.95;32.86
38558;BME280;24333;42.626;23.308;2023-05-07T16:19:21;68923.44;;;-148.95;37.39
38558;BME280;24333;42.626;23.308;2023-05-07T16:21:48;68919.28;;;-148.95;39.21
38558;BME280;24333;42.626;23.308;2023-05-07T16:24:13;68940.03;;;-148.95;40.02
38558;BME280;24333;42.626;23.308;2023-05-07T16:55:06;69342.38;;;-148.95;40.42
38558;BME280;24333;42.626;23.308;2023-05-07T17:01:26;69400.44;;;-148.95;42.11
38558;BME280;24333;42.626;23.308;2023-05-07T17:04:06;69396.31;;;-148.95;42.37
38558;BME280;24333;42.626;23.308;2023-05-07T17:06:32;69396.31;;;-148.95;42.63
38558;BME280;24333;42.626;23.308;2023-05-07T17:08:57;69402.53;;;-148.95;43.58
38558;BME280;24333;42.626;23.308;2023-05-07T17:11:23;69404.59;;;-148.95;44.07
38558;BME280;24333;42.626;23.308;2023-05-07T17:13:48;69406.69;;;-148.95;45.59
38558;BME280;24333;42.626;23.308;2023-05-07T17:52:26;69655.59;;;-148.95;55.19
38558;BME280;24333;42.626;23.308;2023-05-07T17:54:52;69651.44;;;-148.95;55.83
38558;BME280;24333;42.626;23.308;2023-05-07T17:57:17;69655.59;;;-148.95;55.66
38558;BME280;24333;42.626;23.308;2023-05-07T17:59:43;69655.59;;;-148.95;55.45
38558;BME280;24333;42.626;23.308;2023-05-07T18:02:08;69668.03;;;-148.95;55.62
38558;BME280;24333;42.626;23.308;2023-05-07T18:04:33;69670.09;;;-148.95;54.72
38558;BME280;24333;42.626;23.308;2023-05-07T18:22:30;69732.34;;;-148.95;64.60
38558;BME280;24333;42.626;23.308;2023-05-07T18:24:55;69744.78;;;-148.95;64.97
38558;BME280;24333;42.626;23.308;2023-05-07T18:27:20;69763.44;;;-148.95;66.75
38558;BME280;24333;42.626;23.308;2023-05-07T18:29:46;69786.28;;;-148.95;68.33
38558;BME280;24333;42.626;23.308;2023-05-07T18:32:11;69809.09;;;-148.95;65.99
38558;BME280;24333;42.626;23.308;2023-05-07T18:34:37;69823.59;;;-148.95;66.84
38558;BME280;24333;42.626;23.308;2023-05-07T18:37:03;69838.13;;;-148.95;67.00
38558;BME280;24333;42.626;23.308;2023-05-07T18:39:28;69846.44;;;-148.95;63.83
38558;BME280;24333;42.626;23.308;2023-05-07T18:41:54;69844.34;;;-148.95;61.81
38558;BME280;24333;42.626;23.308;2023-05-07T18:44:20;69842.28;;;-148.95;59.49
38558;BME280;24333;42.626;23.308;2023-05-07T18:46:46;69836.06;;;-148.95;58.34
38558;BME280;24333;42.626;23.308;2023-05-07T18:49:12;69838.13;;;-148.95;57.22
38558;BME280;24333;42.626;23.308;2023-05-07T18:51:38;69836.06;;;-148.95;57.92
38558;BME280;24333;42.626;23.308;2023-05-07T18:54:03;69836.06;;;-148.95;57.85
38558;BME280;24333;42.626;23.308;2023-05-07T18:56:29;69840.19;;;-148.95;58.82
38558;BME280;24333;42.626;23.308;2023-05-07T18:58:54;69831.91;;;-148.95;64.23
38558;BME280;24333;42.626;23.308;2023-05-07T19:01:19;69833.97;;;-148.95;64.33
38558;BME280;24333;42.626;23.308;2023-05-07T19:03:45;69840.19;;;-148.95;64.03
38558;BME280;24333;42.626;23.308;2023-05-07T19:35:19;69987.50;;;-148.95;72.46
38558;BME280;24333;42.626;23.308;2023-05-07T19:37:44;69997.88;;;-148.95;75.28
38558;BME280;24333;42.626;23.308;2023-05-07T19:40:10;69993.72;;;-148.95;73.28
38558;BME280;24333;42.626;23.308;2023-05-07T19:42:35;70002.00;;;-148.95;73.45
38558;BME280;24333;42.626;23.308;2023-05-07T19:45:02;70006.16;;;-148.95;73.92
38558;BME280;24333;42.626;23.308;2023-05-07T19:47:28;70006.16;;;-148.95;72.63
38558;BME280;24333;42.626;23.308;2023-05-07T19:49:53;69999.94;;;-148.95;71.34
38558;BME280;24333;42.626;23.308;2023-05-07T19:52:19;70006.16;;;-148.95;69.39
38558;BME280;24333;42.626;23.308;2023-05-07T19:54:44;70008.22;;;-148.95;67.16
38558;BME280;24333;42.626;23.308;2023-05-07T19:57:10;70002.00;;;-148.95;66.87
38558;BME280;24333;42.626;23.308;2023-05-07T19:59:35;69997.88;;;-148.95;66.65
38558;BME280;24333;42.626;23.308;2023-05-07T20:02:00;70010.31;;;-148.95;68.55
38558;BME280;24333;42.626;23.308;2023-05-07T20:04:26;70010.31;;;-148.95;68.20
38558;BME280;24333;42.626;23.308;2023-05-07T20:06:55;69989.56;;;-148.95;71.57
38558;BME280;24333;42.626;23.308;2023-05-07T20:58:57;70118.19;;;-148.95;79.56
38558;BME280;24333;42.626;23.308;2023-05-07T22:38:37;70302.84;;;-148.95;100.00
38558;BME280;24333;42.626;23.308;2023-05-07T22:41:02;70306.97;;;-148.95;100.00
38558;BME280;24333;42.626;23.308;2023-05-07T22:43:28;70313.19;;;-148.95;100.00
38558;BME280;24333;42.626;23.308;2023-05-07T22:45:59;70315.28;;;-148.95;100.00
38558;BME280;24333;42.626;23.308;2023-05-07T22:48:26;70313.19;;;-148.95;100.00
38558;BME280;24333;42.626;23.308;2023-05-07T22:50:52;70317.34;;;-148.95;100.00
